createdAt,value
2022-11-17T00:01:48.706Z,25.80
2022-11-17T00:12:09.177Z,30.63
2022-11-17T00:22:10.640Z,58.57
2022-11-17T00:32:32.999Z,23.67
2022-11-17T00:42:34.490Z,20.60
2022-11-17T00:52:36.039Z,21.20
2022-11-17T01:02:37.653Z,20.07
2022-11-17T01:12:39.789Z,20.60
2022-11-17T01:22:41.219Z,22.23
2022-11-17T01:32:42.642Z,22.10
2022-11-17T01:42:44.105Z,23.40
2022-11-17T01:52:48.992Z,23.87
2022-11-17T02:02:51.758Z,24.17
2022-11-17T02:12:54.434Z,24.70
2022-11-17T02:23:26.594Z,31.60
2022-11-17T02:34:03.140Z,26.47
2022-11-17T02:44:13.395Z,25.30
2022-11-17T02:54:15.521Z,33.67
2022-11-17T03:04:44.120Z,27.13
2022-11-17T03:15:03.093Z,26.90
2022-11-17T03:25:09.806Z,24.00
2022-11-17T03:35:17.003Z,21.30
2022-11-17T03:45:20.591Z,18.37
2022-11-17T03:55:33.777Z,16.60
2022-11-17T04:05:35.268Z,17.27
2022-11-17T04:15:55.343Z,18.83
2022-11-17T04:26:16.286Z,18.37
2022-11-17T04:36:21.918Z,18.73
2022-11-17T04:46:24.311Z,18.13
2022-11-17T04:56:26.988Z,21.43
2022-11-17T05:06:40.189Z,19.70
2022-11-17T05:17:07.371Z,19.70
2022-11-17T05:27:10.386Z,19.00
2022-11-17T05:37:12.017Z,18.07
2022-11-17T05:47:13.483Z,17.87
2022-11-17T05:57:22.381Z,19.17
2022-11-17T06:07:24.144Z,15.83
2022-11-17T06:17:38.965Z,16.07
2022-11-17T06:27:41.516Z,17.23
2022-11-17T06:37:43.593Z,14.03
2022-11-17T06:47:45.081Z,13.60
2022-11-17T06:57:50.427Z,11.80
2022-11-17T07:08:02.530Z,12.63
2022-11-17T07:18:04.124Z,11.23
2022-11-17T07:28:06.253Z,13.23
2022-11-17T07:38:08.313Z,12.53
2022-11-17T07:48:09.764Z,12.17
2022-11-17T07:58:11.236Z,11.00
2022-11-17T08:08:13.394Z,11.20
2022-11-17T08:18:14.891Z,10.57
2022-11-17T08:28:17.141Z,10.53
2022-11-17T08:38:19.061Z,8.57
2022-11-17T08:48:21.327Z,7.70
2022-11-17T08:58:22.932Z,7.43
2022-11-17T09:18:46.144Z,7.83
2022-11-17T09:28:47.753Z,7.10
2022-11-17T09:38:50.670Z,6.63
2022-11-17T09:48:58.980Z,6.23
2022-11-17T09:59:06.064Z,6.30
2022-11-17T10:09:26.391Z,6.00
2022-11-17T10:19:32.710Z,8.43
2022-11-17T10:29:34.172Z,6.63
2022-11-17T10:39:38.432Z,6.70
2022-11-17T10:49:39.877Z,7.57
2022-11-17T10:59:52.094Z,7.23
2022-11-17T11:10:13.260Z,5.87
2022-11-17T11:20:17.054Z,5.33
2022-11-17T11:30:19.698Z,4.87
2022-11-17T11:40:33.353Z,4.57
2022-11-17T11:50:59.447Z,6.73
2022-11-17T12:01:09.540Z,3.30
2022-11-17T12:11:32.241Z,3.00
2022-11-17T12:21:33.758Z,2.83
2022-11-17T12:31:43.772Z,4.33
2022-11-17T12:41:48.010Z,3.37
2022-11-17T12:52:02.266Z,2.03
2022-11-17T13:02:40.691Z,2.00
2022-11-17T13:12:42.195Z,1.67
2022-11-17T13:23:14.320Z,2.10
2022-11-17T13:33:21.377Z,1.50
2022-11-17T13:43:25.237Z,2.30
2022-11-17T13:53:26.802Z,1.77
2022-11-17T14:03:32.448Z,2.70
2022-11-17T14:13:41.326Z,2.30
2022-11-17T14:23:44.481Z,1.80
2022-11-17T14:33:46.163Z,1.63
2022-11-17T14:43:47.896Z,2.37
2022-11-17T14:53:49.594Z,1.70
2022-11-17T15:03:55.317Z,2.47
2022-11-17T15:14:05.085Z,2.93
2022-11-17T15:24:06.909Z,2.40
2022-11-17T15:34:15.659Z,4.07
2022-11-17T15:44:21.284Z,4.97
2022-11-17T15:54:23.406Z,4.47
2022-11-17T16:04:24.949Z,5.40
2022-11-17T16:14:26.419Z,6.60
2022-11-17T16:24:27.904Z,6.17
2022-11-17T16:34:29.398Z,7.10
2022-11-17T16:44:31.967Z,7.17
2022-11-17T16:54:33.453Z,6.03
2022-11-17T17:04:34.992Z,11.37
2022-11-17T17:14:36.614Z,8.57
2022-11-17T17:24:38.119Z,6.50
2022-11-17T17:34:39.824Z,7.13
2022-11-17T17:44:41.610Z,7.60
2022-11-17T17:54:43.301Z,8.17
2022-11-17T18:04:44.841Z,9.23
2022-11-17T18:14:46.879Z,7.90
2022-11-17T18:24:48.333Z,9.37
2022-11-17T18:34:51.867Z,11.17
2022-11-17T18:44:53.375Z,12.37
2022-11-17T18:54:54.910Z,13.43
2022-11-17T19:04:58.457Z,8.83
2022-11-17T19:14:59.935Z,10.00
2022-11-17T19:25:01.465Z,9.53
2022-11-17T19:35:22.540Z,9.80
2022-11-17T19:56:30.317Z,9.33
2022-11-17T20:06:37.569Z,8.03
2022-11-17T20:16:39.074Z,8.30
2022-11-17T20:26:42.331Z,8.00
2022-11-17T20:36:43.776Z,8.00
2022-11-17T20:46:45.230Z,7.67
2022-11-17T20:56:46.739Z,7.40
2022-11-17T21:06:48.448Z,8.37
2022-11-17T21:16:50.091Z,9.17
2022-11-17T21:26:53.382Z,8.40
2022-11-17T21:36:54.817Z,7.77
2022-11-17T21:46:56.269Z,7.17
2022-11-17T21:56:57.788Z,5.90
2022-11-17T22:06:59.268Z,2.57
2022-11-17T22:17:01.652Z,1.60
2022-11-17T22:27:03.146Z,1.90
2022-11-17T22:37:04.677Z,1.10
2022-11-17T22:47:06.271Z,1.07
2022-11-17T22:57:07.707Z,1.00
2022-11-17T23:07:09.215Z,1.00
2022-11-17T23:17:10.725Z,0.97
2022-11-17T23:27:12.393Z,0.73
2022-11-17T23:37:13.896Z,0.93
2022-11-17T23:47:15.375Z,1.33
2022-11-17T23:57:16.968Z,1.20
